createdAt,value
2019-06-25T00:27:38.689Z,4.90
2019-06-25T00:30:07.383Z,4.97
2019-06-25T00:32:35.845Z,5.00
2019-06-25T00:35:04.755Z,4.67
2019-06-25T00:37:33.216Z,4.87
2019-06-25T00:40:01.686Z,4.90
2019-06-25T00:42:30.146Z,5.30
2019-06-25T00:44:58.507Z,4.87
2019-06-25T00:47:27.177Z,5.27
2019-06-25T00:49:55.748Z,5.07
2019-06-25T00:52:24.111Z,4.90
2019-06-25T00:54:52.689Z,5.13
2019-06-25T00:57:21.154Z,4.93
2019-06-25T00:59:49.617Z,5.03
2019-06-25T01:02:40.237Z,5.33
2019-06-25T01:05:08.801Z,4.87
2019-06-25T01:07:37.193Z,5.70
2019-06-25T01:10:05.717Z,5.27
2019-06-25T01:12:34.391Z,5.33
2019-06-25T01:15:03.012Z,5.40
2019-06-25T01:17:31.571Z,5.70
2019-06-25T01:20:00.191Z,5.70
2019-06-25T01:22:28.699Z,5.47
2019-06-25T01:24:57.066Z,5.63
2019-06-25T01:27:25.725Z,5.40
2019-06-25T01:29:54.267Z,5.10
2019-06-25T01:32:22.761Z,5.03
2019-06-25T01:34:51.230Z,5.23
2019-06-25T01:37:19.677Z,4.83
2019-06-25T01:39:48.226Z,5.23
2019-06-25T01:42:16.990Z,5.60
2019-06-25T01:44:45.550Z,5.40
2019-06-25T01:47:13.902Z,5.47
2019-06-25T01:49:42.359Z,5.73
2019-06-25T01:52:10.819Z,5.10
2019-06-25T01:54:39.165Z,5.43
2019-06-25T01:57:07.750Z,5.70
2019-06-25T01:59:36.331Z,5.40
2019-06-25T02:02:04.898Z,6.60
2019-06-25T02:04:33.344Z,5.60
2019-06-25T02:07:01.814Z,5.80
2019-06-25T02:09:30.520Z,6.80
2019-06-25T02:11:58.994Z,6.27
2019-06-25T02:14:27.458Z,6.40
2019-06-25T02:16:55.797Z,6.00
2019-06-25T02:19:24.152Z,6.20
2019-06-25T02:21:52.711Z,6.43
2019-06-25T02:24:21.169Z,6.50
2019-06-25T02:26:49.730Z,6.80
2019-06-25T02:29:18.307Z,6.90
2019-06-25T02:31:46.832Z,6.20
2019-06-25T02:34:15.192Z,6.67
2019-06-25T02:36:43.748Z,6.33
2019-06-25T02:39:12.095Z,6.70
2019-06-25T02:41:40.441Z,7.10
2019-06-25T02:44:09.041Z,6.47
2019-06-25T02:46:37.500Z,6.33
2019-06-25T02:49:06.062Z,6.87
2019-06-25T02:51:34.722Z,5.90
2019-06-25T02:54:03.416Z,6.30
2019-06-25T02:56:32.087Z,6.53
2019-06-25T02:59:00.725Z,6.33
2019-06-25T03:01:30.223Z,5.90
2019-06-25T03:03:58.882Z,6.73
2019-06-25T03:06:27.456Z,6.70
2019-06-25T03:08:56.008Z,6.10
2019-06-25T03:11:24.465Z,6.27
2019-06-25T03:13:52.939Z,6.33
2019-06-25T03:16:21.421Z,6.47
2019-06-25T03:18:49.870Z,6.43
2019-06-25T03:21:18.425Z,6.13
2019-06-25T03:23:46.893Z,6.30
2019-06-25T03:26:15.353Z,6.33
2019-06-25T03:28:44.096Z,5.97
2019-06-25T03:31:12.727Z,6.53
2019-06-25T03:33:41.191Z,10.57
2019-06-25T03:36:09.829Z,7.00
2019-06-25T03:38:38.372Z,5.90
2019-06-25T03:41:06.893Z,7.73
2019-06-25T03:43:35.529Z,5.83
2019-06-25T03:46:03.989Z,5.27
2019-06-25T03:48:32.570Z,5.20
2019-06-25T03:51:01.025Z,5.47
2019-06-25T03:53:29.597Z,5.27
2019-06-25T03:55:57.951Z,5.30
2019-06-25T03:58:26.446Z,4.90
2019-06-25T04:00:54.873Z,5.17
2019-06-25T04:03:23.537Z,4.97
2019-06-25T04:05:52.112Z,5.13
2019-06-25T04:08:20.694Z,4.90
2019-06-25T04:10:49.243Z,4.73
2019-06-25T04:13:17.721Z,4.70
2019-06-25T04:15:46.173Z,5.67
2019-06-25T04:18:14.687Z,6.27
2019-06-25T04:20:43.241Z,6.90
2019-06-25T04:23:11.804Z,5.67
2019-06-25T04:25:40.368Z,5.43
2019-06-25T04:28:08.939Z,4.80
2019-06-25T04:30:37.480Z,4.70
2019-06-25T04:33:06.053Z,4.60
2019-06-25T04:35:34.599Z,4.63
2019-06-25T04:38:02.971Z,4.70
2019-06-25T04:40:31.415Z,5.10
2019-06-25T04:43:00.386Z,4.60
2019-06-25T04:45:28.855Z,5.27
2019-06-25T04:47:57.414Z,4.50
2019-06-25T04:50:25.976Z,3.97
2019-06-25T04:52:54.687Z,4.87
2019-06-25T04:55:23.409Z,4.60
2019-06-25T04:57:51.888Z,4.90
2019-06-25T05:00:20.405Z,5.63
2019-06-25T05:02:50.490Z,4.97
2019-06-25T05:05:19.303Z,5.10
2019-06-25T05:07:47.925Z,5.03
2019-06-25T05:10:17.276Z,4.70
2019-06-25T05:12:45.776Z,4.67
2019-06-25T05:15:15.353Z,4.73
2019-06-25T05:17:43.948Z,4.80
2019-06-25T05:20:14.674Z,5.03
2019-06-25T05:22:43.227Z,5.00
2019-06-25T05:25:12.534Z,4.90
2019-06-25T05:27:41.201Z,4.57
2019-06-25T05:30:10.378Z,6.43
2019-06-25T05:32:38.934Z,5.20
2019-06-25T05:35:09.118Z,5.23
2019-06-25T05:37:39.326Z,5.13
2019-06-25T05:40:08.597Z,5.73
2019-06-25T05:42:37.171Z,5.27
2019-06-25T05:45:09.280Z,5.57
2019-06-25T05:47:37.942Z,6.17
2019-06-25T05:50:07.910Z,5.37
2019-06-25T05:52:36.354Z,6.00
2019-06-25T05:55:05.104Z,5.30
2019-06-25T05:57:33.573Z,5.17
2019-06-25T06:00:02.070Z,5.60
2019-06-25T06:02:30.831Z,6.33
2019-06-25T06:04:59.411Z,6.23
2019-06-25T06:07:27.923Z,5.70
2019-06-25T06:09:56.578Z,5.73
2019-06-25T06:12:25.270Z,6.03
2019-06-25T06:14:53.718Z,6.10
2019-06-25T06:17:22.301Z,7.10
2019-06-25T06:19:50.913Z,6.20
2019-06-25T06:22:19.357Z,6.57
2019-06-25T06:24:47.850Z,6.17
2019-06-25T06:27:16.303Z,6.87
2019-06-25T06:29:44.792Z,6.57
2019-06-25T06:32:13.249Z,6.20
2019-06-25T06:34:41.835Z,7.03
2019-06-25T06:37:10.193Z,7.23
2019-06-25T06:39:38.572Z,6.57
2019-06-25T06:42:07.178Z,6.63
2019-06-25T06:44:35.653Z,6.20
2019-06-25T06:47:04.313Z,6.87
2019-06-25T06:49:32.784Z,6.90
2019-06-25T06:52:01.235Z,6.23
2019-06-25T06:54:29.801Z,6.93
2019-06-25T06:56:58.363Z,6.83
2019-06-25T06:59:26.943Z,6.93
2019-06-25T07:01:55.501Z,6.40
2019-06-25T07:04:24.107Z,6.07
2019-06-25T07:06:52.548Z,6.27
2019-06-25T07:09:21.240Z,6.43
2019-06-25T07:11:49.696Z,6.53
2019-06-25T07:14:18.072Z,6.63
2019-06-25T07:16:46.738Z,6.57
2019-06-25T07:19:15.307Z,6.80
2019-06-25T07:21:43.875Z,6.60
2019-06-25T07:24:12.344Z,6.87
2019-06-25T07:26:41.150Z,7.10
2019-06-25T07:29:09.709Z,6.03
2019-06-25T07:31:38.304Z,6.63
2019-06-25T07:34:09.714Z,6.67
2019-06-25T07:36:37.307Z,7.10
2019-06-25T07:39:06.096Z,6.80
2019-06-25T07:41:35.521Z,7.10
2019-06-25T07:44:04.278Z,7.67
2019-06-25T07:46:32.955Z,6.70
2019-06-25T07:49:01.410Z,7.07
2019-06-25T07:51:30.094Z,6.53
2019-06-25T07:53:58.658Z,6.00
2019-06-25T07:56:36.752Z,5.93
2019-06-25T07:58:57.691Z,5.67
2019-06-25T08:01:26.167Z,6.03
2019-06-25T08:03:54.730Z,6.47
2019-06-25T08:06:23.612Z,7.17
2019-06-25T08:08:52.165Z,6.90
2019-06-25T08:11:20.744Z,6.40
2019-06-25T08:13:49.302Z,6.17
2019-06-25T08:16:17.756Z,6.50
2019-06-25T08:18:46.230Z,6.80
2019-06-25T08:21:14.720Z,7.07
2019-06-25T08:23:43.191Z,7.10
2019-06-25T08:26:11.970Z,6.33
2019-06-25T08:28:40.430Z,6.43
2019-06-25T08:31:09.406Z,8.27
2019-06-25T08:33:38.130Z,7.00
2019-06-25T08:36:06.712Z,7.07
2019-06-25T08:38:35.262Z,6.30
2019-06-25T08:41:03.841Z,6.37
2019-06-25T08:43:32.428Z,6.67
2019-06-25T08:46:00.907Z,8.10
2019-06-25T08:48:29.505Z,7.87
2019-06-25T08:50:58.065Z,6.80
2019-06-25T08:53:26.721Z,7.50
2019-06-25T08:55:55.181Z,5.73
2019-06-25T08:58:23.625Z,6.57
2019-06-25T09:00:52.300Z,6.73
2019-06-25T09:03:20.782Z,6.30
2019-06-25T09:05:49.286Z,6.50
2019-06-25T09:08:17.942Z,6.50
2019-06-25T09:10:49.878Z,6.73
2019-06-25T09:13:16.696Z,6.60
2019-06-25T09:15:45.176Z,7.23
2019-06-25T09:18:13.662Z,6.67
2019-06-25T09:20:42.123Z,7.77
2019-06-25T09:23:10.736Z,6.83
2019-06-25T09:25:39.281Z,6.47
2019-06-25T09:28:07.863Z,6.73
2019-06-25T09:30:37.365Z,6.27
2019-06-25T09:33:06.304Z,6.83
2019-06-25T09:35:34.925Z,6.37
2019-06-25T09:38:03.744Z,6.63
2019-06-25T09:40:31.145Z,6.30
2019-06-25T09:42:58.470Z,5.77
2019-06-25T09:45:34.862Z,6.07
2019-06-25T09:48:05.700Z,5.90
2019-06-25T09:50:34.164Z,6.30
2019-06-25T09:53:02.775Z,5.53
2019-06-25T09:55:31.371Z,5.93
2019-06-25T09:57:59.838Z,5.57
2019-06-25T10:00:52.383Z,6.40
2019-06-25T10:03:21.545Z,5.50
2019-06-25T10:05:50.316Z,6.23
2019-06-25T10:08:18.822Z,5.67
2019-06-25T10:10:47.591Z,5.90
2019-06-25T10:13:16.066Z,6.43
2019-06-25T10:15:44.952Z,6.17
2019-06-25T10:18:13.645Z,6.40
2019-06-25T10:20:42.159Z,6.03
2019-06-25T10:23:10.726Z,6.50
2019-06-25T10:25:39.419Z,5.80
2019-06-25T10:28:08.197Z,6.03
2019-06-25T10:30:47.694Z,6.00
2019-06-25T10:33:16.352Z,6.60
2019-06-25T10:35:47.807Z,6.63
2019-06-25T10:38:16.054Z,6.63
2019-06-25T10:40:44.648Z,6.33
2019-06-25T10:43:13.123Z,6.60
2019-06-25T10:45:41.918Z,7.70
2019-06-25T10:48:10.506Z,7.37
2019-06-25T10:50:39.100Z,7.63
2019-06-25T10:53:07.873Z,6.80
2019-06-25T10:55:36.538Z,7.57
2019-06-25T10:58:05.024Z,7.80
2019-06-25T11:00:41.550Z,7.90
2019-06-25T11:03:10.135Z,7.87
2019-06-25T11:05:39.298Z,8.23
2019-06-25T11:08:07.836Z,9.00
2019-06-25T11:10:36.309Z,7.13
2019-06-25T11:13:05.019Z,8.27
2019-06-25T11:15:33.882Z,7.37
2019-06-25T11:18:02.585Z,7.83
2019-06-25T11:20:31.161Z,8.00
2019-06-25T11:22:59.836Z,8.23
2019-06-25T11:25:28.330Z,8.87
2019-06-25T11:27:56.828Z,8.23
2019-06-25T11:30:25.293Z,9.30
2019-06-25T11:32:53.881Z,9.37
2019-06-25T11:35:22.367Z,9.27
2019-06-25T11:37:51.052Z,9.70
2019-06-25T11:40:25.791Z,9.23
2019-06-25T11:42:54.357Z,9.30
2019-06-25T11:45:22.842Z,10.33
2019-06-25T11:47:53.547Z,10.07
2019-06-25T11:50:22.123Z,10.30
2019-06-25T11:52:50.605Z,9.90
2019-06-25T11:55:19.378Z,10.67
2019-06-25T11:57:47.995Z,9.70
2019-06-25T12:00:18.664Z,9.40
2019-06-25T12:02:48.626Z,10.53
2019-06-25T12:05:18.227Z,10.27
2019-06-25T12:07:46.903Z,9.70
2019-06-25T12:10:15.735Z,9.50
2019-06-25T12:12:44.418Z,9.20
2019-06-25T12:15:12.908Z,9.33
2019-06-25T12:17:41.760Z,8.77
2019-06-25T12:20:10.441Z,10.50
2019-06-25T12:22:39.039Z,10.63
2019-06-25T12:25:08.291Z,8.90
2019-06-25T12:27:37.163Z,8.40
2019-06-25T12:30:07.045Z,8.50
2019-06-25T12:32:35.615Z,8.30
2019-06-25T12:35:05.164Z,8.00
2019-06-25T12:37:33.966Z,8.20
2019-06-25T12:40:03.252Z,7.77
2019-06-25T12:42:31.860Z,8.83
2019-06-25T12:45:00.639Z,8.10
2019-06-25T12:47:29.210Z,7.93
2019-06-25T12:49:57.937Z,8.17
2019-06-25T12:52:26.510Z,8.40
2019-06-25T12:54:55.202Z,7.33
2019-06-25T12:57:23.887Z,7.77
2019-06-25T12:59:52.601Z,8.03
2019-06-25T13:02:21.655Z,7.40
2019-06-25T13:04:50.362Z,7.10
2019-06-25T13:07:25.532Z,7.70
2019-06-25T13:09:49.281Z,7.70
2019-06-25T13:12:17.753Z,7.00
2019-06-25T13:14:46.227Z,7.10
2019-06-25T13:17:14.815Z,7.53
2019-06-25T13:19:43.710Z,7.77
2019-06-25T13:22:12.415Z,7.57
2019-06-25T13:24:41.222Z,7.50
2019-06-25T13:27:09.761Z,8.03
2019-06-25T13:29:38.439Z,7.77
2019-06-25T13:32:07.322Z,7.87
2019-06-25T13:34:35.914Z,9.83
2019-06-25T13:37:04.631Z,14.40
2019-06-25T13:39:33.117Z,11.53
2019-06-25T13:42:05.103Z,10.90
2019-06-25T13:44:32.789Z,10.27
2019-06-25T13:47:02.128Z,9.73
2019-06-25T13:49:31.473Z,8.30
2019-06-25T13:52:00.142Z,8.13
2019-06-25T13:54:28.834Z,7.97
2019-06-25T13:56:57.471Z,8.00
2019-06-25T13:59:26.159Z,9.00
2019-06-25T14:01:54.732Z,8.00
2019-06-25T14:04:23.314Z,8.30
2019-06-25T14:06:52.325Z,8.00
2019-06-25T14:09:21.187Z,8.80
2019-06-25T14:11:52.622Z,7.53
2019-06-25T14:14:21.551Z,8.07
2019-06-25T14:16:50.313Z,8.30
2019-06-25T14:19:19.061Z,8.23
2019-06-25T14:21:47.660Z,8.00
2019-06-25T14:24:16.283Z,8.40
2019-06-25T14:26:44.828Z,9.47
2019-06-25T14:29:13.665Z,9.33
2019-06-25T14:31:42.425Z,8.67
2019-06-25T14:34:11.094Z,9.53
2019-06-25T14:36:39.780Z,9.30
2019-06-25T14:39:08.352Z,9.53
2019-06-25T14:41:36.953Z,8.97
2019-06-25T14:44:05.551Z,9.03
2019-06-25T14:46:34.130Z,9.07
2019-06-25T14:49:02.976Z,8.07
2019-06-25T14:51:31.608Z,8.20
2019-06-25T14:53:59.999Z,9.00
2019-06-25T14:56:28.671Z,8.97
2019-06-25T14:58:57.485Z,8.40
2019-06-25T15:01:26.063Z,8.27
2019-06-25T15:03:54.544Z,8.60
2019-06-25T15:06:23.228Z,8.37
2019-06-25T15:08:51.945Z,8.70
2019-06-25T15:11:20.521Z,8.10
2019-06-25T15:13:49.205Z,8.70
2019-06-25T15:16:17.811Z,8.93
2019-06-25T15:18:46.506Z,8.27
2019-06-25T15:21:15.351Z,8.20
2019-06-25T15:23:44.086Z,9.33
2019-06-25T15:26:12.642Z,8.13
2019-06-25T15:28:41.224Z,8.20
2019-06-25T15:31:09.706Z,8.43
2019-06-25T15:33:38.291Z,9.30
2019-06-25T15:36:06.866Z,9.30
2019-06-25T15:38:46.913Z,9.80
2019-06-25T15:41:05.876Z,9.10
2019-06-25T15:43:34.477Z,11.60
2019-06-25T15:46:03.254Z,11.70
2019-06-25T15:48:32.032Z,13.20
2019-06-25T15:51:00.709Z,12.87
2019-06-25T15:53:29.620Z,12.70
2019-06-25T15:55:58.229Z,13.53
2019-06-25T15:58:26.960Z,16.93
2019-06-25T16:00:55.503Z,13.40
2019-06-25T16:03:24.179Z,12.53
2019-06-25T16:05:52.878Z,13.17
2019-06-25T16:08:21.695Z,11.60
2019-06-25T16:10:50.263Z,10.73
2019-06-25T16:13:18.843Z,11.80
2019-06-25T16:15:47.508Z,11.30
2019-06-25T16:18:16.106Z,10.47
2019-06-25T16:20:44.733Z,11.77
2019-06-25T16:23:13.368Z,12.27
2019-06-25T16:25:42.351Z,12.50
2019-06-25T16:28:11.337Z,12.43
2019-06-25T16:30:40.083Z,12.53
2019-06-25T16:33:08.687Z,13.10
2019-06-25T16:35:37.259Z,13.17
2019-06-25T16:38:05.750Z,12.30
2019-06-25T16:40:34.527Z,11.43
2019-06-25T16:43:03.002Z,10.70
2019-06-25T16:45:31.590Z,8.93
2019-06-25T16:48:00.153Z,8.73
2019-06-25T16:50:28.823Z,8.33
2019-06-25T16:53:00.850Z,8.10
2019-06-25T16:55:27.791Z,8.17
2019-06-25T16:57:56.391Z,8.90
2019-06-25T17:00:24.901Z,7.97
2019-06-25T17:02:55.034Z,8.10
2019-06-25T17:05:31.874Z,8.60
2019-06-25T17:07:54.217Z,8.17
2019-06-25T17:10:23.103Z,8.33
2019-06-25T17:12:51.592Z,8.00
2019-06-25T17:15:20.189Z,7.60
2019-06-25T17:17:48.875Z,7.93
2019-06-25T17:20:17.635Z,8.20
2019-06-25T17:22:46.418Z,8.10
2019-06-25T17:25:15.221Z,8.77
2019-06-25T17:27:49.801Z,8.33
2019-06-25T17:30:15.814Z,8.10
2019-06-25T17:32:44.389Z,7.77
2019-06-25T17:35:13.157Z,8.23
2019-06-25T17:37:41.750Z,8.07
2019-06-25T17:40:10.646Z,7.70
2019-06-25T17:42:39.334Z,7.83
2019-06-25T17:45:08.211Z,7.73
2019-06-25T17:47:36.712Z,7.37
2019-06-25T17:50:05.715Z,6.57
2019-06-25T17:52:34.383Z,6.00
2019-06-25T17:55:03.275Z,7.53
2019-06-25T17:57:31.932Z,6.20
2019-06-25T18:00:00.611Z,6.77
2019-06-25T18:02:29.217Z,6.57
2019-06-25T18:04:57.686Z,5.70
2019-06-25T18:07:26.366Z,6.40
2019-06-25T18:10:07.275Z,6.67
2019-06-25T18:12:25.484Z,6.47
2019-06-25T18:14:54.077Z,6.53
2019-06-25T18:17:22.909Z,6.70
2019-06-25T18:19:51.721Z,6.53
2019-06-25T18:22:20.327Z,6.50
2019-06-25T18:24:48.890Z,6.30
2019-06-25T18:27:17.581Z,6.33
2019-06-25T18:29:46.142Z,6.90
2019-06-25T18:32:14.925Z,6.53
2019-06-25T18:34:43.570Z,6.27
2019-06-25T18:37:12.278Z,6.50
2019-06-25T18:39:40.992Z,5.97
2019-06-25T18:42:09.584Z,6.70
2019-06-25T18:44:38.386Z,6.40
2019-06-25T18:47:06.979Z,6.10
2019-06-25T18:49:39.055Z,5.80
2019-06-25T18:52:06.338Z,5.70
2019-06-25T18:54:35.122Z,5.87
2019-06-25T18:57:03.710Z,6.10
2019-06-25T18:59:32.281Z,5.97
2019-06-25T19:02:01.221Z,5.60
2019-06-25T19:04:29.918Z,5.30
2019-06-25T19:06:58.788Z,5.77
2019-06-25T19:09:27.375Z,5.87
2019-06-25T19:11:55.889Z,4.93
2019-06-25T19:14:24.566Z,4.87
2019-06-25T19:16:53.166Z,5.23
2019-06-25T19:19:21.759Z,5.23
2019-06-25T19:21:50.347Z,4.63
2019-06-25T19:24:19.042Z,4.37
2019-06-25T19:26:47.738Z,4.90
2019-06-25T19:29:16.426Z,4.57
2019-06-25T19:31:45.119Z,4.37
2019-06-25T19:34:13.686Z,4.53
2019-06-25T19:36:42.335Z,4.60
2019-06-25T19:39:10.893Z,4.50
2019-06-25T19:41:39.699Z,4.37
2019-06-25T19:44:08.573Z,4.57
2019-06-25T19:46:37.156Z,4.77
2019-06-25T19:49:05.549Z,4.70
2019-06-25T20:18:50.199Z,4.23
2019-06-25T20:21:18.958Z,3.87
2019-06-25T20:23:47.474Z,3.90
2019-06-25T20:26:16.245Z,4.20
2019-06-25T20:28:44.845Z,4.43
2019-06-25T20:31:13.293Z,4.03
2019-06-25T20:33:42.193Z,4.13
2019-06-25T20:36:10.793Z,4.47
2019-06-25T20:38:39.450Z,4.50
2019-06-25T20:41:07.953Z,4.73
2019-06-25T20:43:36.641Z,5.13
2019-06-25T20:46:05.145Z,4.73
2019-06-25T20:48:33.859Z,4.60
2019-06-25T20:51:02.473Z,4.93
2019-06-25T20:53:32.683Z,4.53
2019-06-25T20:56:01.539Z,4.53
2019-06-25T20:58:30.254Z,4.93
2019-06-25T21:00:58.756Z,5.00
2019-06-25T21:03:29.702Z,5.37
2019-06-25T21:05:58.240Z,5.33
2019-06-25T21:08:26.867Z,5.80
2019-06-25T21:10:55.428Z,4.90
2019-06-25T21:13:24.214Z,5.10
2019-06-25T21:15:52.765Z,5.23
2019-06-25T21:18:21.407Z,5.10
2019-06-25T21:20:49.982Z,5.13
2019-06-25T21:23:18.349Z,5.57
2019-06-25T21:25:46.902Z,4.67
2019-06-25T21:28:15.386Z,5.17
2019-06-25T21:30:43.855Z,5.07
2019-06-25T21:33:12.364Z,5.50
2019-06-25T21:35:44.351Z,5.33
2019-06-25T21:38:11.413Z,4.97
2019-06-25T21:40:39.993Z,5.00
2019-06-25T21:43:08.666Z,5.20
2019-06-25T21:45:37.247Z,5.30
2019-06-25T21:48:05.715Z,5.60
2019-06-25T21:50:34.306Z,5.50
2019-06-25T21:53:03.083Z,5.60
2019-06-25T21:55:31.544Z,5.33
2019-06-25T21:58:00.004Z,4.97
2019-06-25T22:00:31.460Z,5.63
2019-06-25T22:03:00.135Z,5.57
2019-06-25T22:05:28.644Z,5.57
2019-06-25T22:07:57.247Z,5.40
2019-06-25T22:10:25.971Z,5.50
2019-06-25T22:12:54.442Z,5.83
2019-06-25T22:15:22.916Z,5.80
2019-06-25T22:17:51.485Z,5.73
2019-06-25T22:20:20.354Z,5.87
2019-06-25T22:22:48.927Z,6.10
2019-06-25T22:25:17.377Z,6.30
2019-06-25T22:27:45.862Z,6.33
2019-06-25T22:30:16.443Z,6.33
2019-06-25T22:32:45.126Z,6.43
2019-06-25T22:35:14.533Z,7.07
2019-06-25T22:37:43.083Z,6.90
2019-06-25T22:40:12.153Z,7.07
2019-06-25T22:42:40.641Z,7.00
2019-06-25T22:45:09.804Z,7.53
2019-06-25T22:47:38.348Z,6.70
2019-06-25T22:50:07.720Z,7.87
2019-06-25T22:52:36.190Z,7.27
2019-06-25T22:55:05.044Z,7.17
2019-06-25T22:57:34.583Z,7.40
2019-06-25T23:00:04.718Z,7.80
2019-06-25T23:02:33.463Z,8.40
2019-06-25T23:05:02.142Z,7.77
2019-06-25T23:07:30.919Z,8.50
2019-06-25T23:09:59.477Z,8.10
2019-06-25T23:12:27.831Z,8.17
2019-06-25T23:14:56.308Z,8.60
2019-06-25T23:17:24.885Z,8.33
2019-06-25T23:19:53.292Z,8.87
2019-06-25T23:22:21.703Z,7.90
2019-06-25T23:24:50.189Z,7.97
2019-06-25T23:27:18.770Z,7.83
2019-06-25T23:29:47.247Z,7.10
2019-06-25T23:32:15.816Z,7.40
2019-06-25T23:34:44.267Z,6.90
2019-06-25T23:37:12.700Z,7.43
2019-06-25T23:39:41.175Z,6.67
2019-06-25T23:42:09.777Z,7.87
2019-06-25T23:44:38.325Z,6.83
2019-06-25T23:47:07.014Z,6.70
2019-06-25T23:49:36.066Z,7.17
2019-06-25T23:52:04.636Z,7.53
2019-06-25T23:54:33.289Z,6.90
2019-06-25T23:57:01.875Z,7.20
2019-06-25T23:59:30.341Z,7.20
